sensor_id;sensor_type;location;lat;lon;timestamp;P1;durP1;ratioP1;P2;durP2;ratioP2
85131;SDS011;75493;51.772;19.464;2024-01-30T00:01:16;18.45;;;8.57;;
85131;SDS011;75493;51.772;19.464;2024-01-30T00:03:42;17.85;;;8.82;;
85131;SDS011;75493;51.772;19.464;2024-01-30T00:06:08;18.27;;;9.25;;
85131;SDS011;75493;51.772;19.464;2024-01-30T00:08:34;18.33;;;8.98;;
85131;SDS011;75493;51.772;19.464;2024-01-30T00:11:00;18.25;;;9.32;;
85131;SDS011;75493;51.772;19.464;2024-01-30T00:13:26;22.13;;;10.35;;
85131;SDS011;75493;51.772;19.464;2024-01-30T00:15:52;17.70;;;9.32;;
85131;SDS011;75493;51.772;19.464;2024-01-30T00:18:19;14.60;;;8.40;;
85131;SDS011;75493;51.772;19.464;2024-01-30T00:20:45;17.63;;;8.63;;
85131;SDS011;75493;51.772;19.464;2024-01-30T00:23:11;19.38;;;8.68;;
85131;SDS011;75493;51.772;19.464;2024-01-30T00:25:37;15.32;;;8.35;;
85131;SDS011;75493;51.772;19.464;2024-01-30T00:28:03;17.27;;;9.02;;
85131;SDS011;75493;51.772;19.464;2024-01-30T00:30:29;18.00;;;9.10;;
85131;SDS011;75493;51.772;19.464;2024-01-30T00:32:55;18.15;;;8.95;;
85131;SDS011;75493;51.772;19.464;2024-01-30T00:35:20;22.15;;;9.38;;
85131;SDS011;75493;51.772;19.464;2024-01-30T00:37:47;18.02;;;8.38;;
85131;SDS011;75493;51.772;19.464;2024-01-30T00:40:13;17.10;;;8.95;;
85131;SDS011;75493;51.772;19.464;2024-01-30T00:42:43;15.68;;;8.10;;
85131;SDS011;75493;51.772;19.464;2024-01-30T00:45:16;17.83;;;7.95;;
85131;SDS011;75493;51.772;19.464;2024-01-30T00:47:42;17.05;;;8.45;;
85131;SDS011;75493;51.772;19.464;2024-01-30T00:50:08;15.93;;;7.90;;
85131;SDS011;75493;51.772;19.464;2024-01-30T00:52:34;18.13;;;9.35;;
85131;SDS011;75493;51.772;19.464;2024-01-30T00:55:01;17.75;;;8.98;;
85131;SDS011;75493;51.772;19.464;2024-01-30T00:57:27;20.80;;;9.30;;
85131;SDS011;75493;51.772;19.464;2024-01-30T00:59:53;16.27;;;7.85;;
85131;SDS011;75493;51.772;19.464;2024-01-30T01:02:20;17.38;;;7.70;;
85131;SDS011;75493;51.772;19.464;2024-01-30T01:04:45;14.95;;;7.70;;
85131;SDS011;75493;51.772;19.464;2024-01-30T01:07:12;15.52;;;7.82;;
85131;SDS011;75493;51.772;19.464;2024-01-30T01:09:37;14.50;;;7.35;;
85131;SDS011;75493;51.772;19.464;2024-01-30T01:12:03;17.05;;;8.07;;
85131;SDS011;75493;51.772;19.464;2024-01-30T01:14:30;14.85;;;7.45;;
85131;SDS011;75493;51.772;19.464;2024-01-30T01:16:56;14.52;;;7.40;;
85131;SDS011;75493;51.772;19.464;2024-01-30T01:19:21;18.83;;;7.60;;
85131;SDS011;75493;51.772;19.464;2024-01-30T01:21:48;14.77;;;7.15;;
85131;SDS011;75493;51.772;19.464;2024-01-30T01:24:13;13.68;;;7.03;;
85131;SDS011;75493;51.772;19.464;2024-01-30T01:26:39;18.52;;;7.68;;
85131;SDS011;75493;51.772;19.464;2024-01-30T01:29:06;15.32;;;7.10;;
85131;SDS011;75493;51.772;19.464;2024-01-30T01:34:08;13.00;;;6.45;;
85131;SDS011;75493;51.772;19.464;2024-01-30T01:36:34;12.02;;;6.72;;
85131;SDS011;75493;51.772;19.464;2024-01-30T01:39:00;13.23;;;6.63;;
85131;SDS011;75493;51.772;19.464;2024-01-30T01:41:29;16.20;;;6.65;;
85131;SDS011;75493;51.772;19.464;2024-01-30T01:43:56;15.23;;;7.50;;
85131;SDS011;75493;51.772;19.464;2024-01-30T01:46:22;12.23;;;6.88;;
85131;SDS011;75493;51.772;19.464;2024-01-30T01:48:48;12.95;;;6.50;;
85131;SDS011;75493;51.772;19.464;2024-01-30T01:51:14;15.95;;;6.45;;
85131;SDS011;75493;51.772;19.464;2024-01-30T01:53:41;15.07;;;7.38;;
85131;SDS011;75493;51.772;19.464;2024-01-30T01:56:07;12.20;;;6.15;;
85131;SDS011;75493;51.772;19.464;2024-01-30T01:58:33;13.13;;;6.35;;
85131;SDS011;75493;51.772;19.464;2024-01-30T02:00:59;17.40;;;7.15;;
85131;SDS011;75493;51.772;19.464;2024-01-30T02:03:25;11.35;;;6.45;;
85131;SDS011;75493;51.772;19.464;2024-01-30T02:05:51;13.18;;;6.32;;
85131;SDS011;75493;51.772;19.464;2024-01-30T02:08:17;11.13;;;6.05;;
85131;SDS011;75493;51.772;19.464;2024-01-30T02:10:43;12.77;;;6.63;;
85131;SDS011;75493;51.772;19.464;2024-01-30T02:13:10;11.60;;;5.53;;
85131;SDS011;75493;51.772;19.464;2024-01-30T02:15:36;12.80;;;6.28;;
85131;SDS011;75493;51.772;19.464;2024-01-30T02:18:02;14.68;;;6.50;;
85131;SDS011;75493;51.772;19.464;2024-01-30T02:20:28;11.35;;;5.97;;
85131;SDS011;75493;51.772;19.464;2024-01-30T02:22:56;12.73;;;5.88;;
85131;SDS011;75493;51.772;19.464;2024-01-30T02:25:39;16.48;;;6.38;;
85131;SDS011;75493;51.772;19.464;2024-01-30T02:28:14;11.25;;;5.93;;
85131;SDS011;75493;51.772;19.464;2024-01-30T02:30:42;12.13;;;5.95;;
85131;SDS011;75493;51.772;19.464;2024-01-30T02:33:08;11.98;;;6.30;;
85131;SDS011;75493;51.772;19.464;2024-01-30T02:35:34;14.50;;;6.70;;
85131;SDS011;75493;51.772;19.464;2024-01-30T02:38:01;14.65;;;6.15;;
85131;SDS011;75493;51.772;19.464;2024-01-30T02:40:27;12.85;;;5.75;;
85131;SDS011;75493;51.772;19.464;2024-01-30T02:42:53;14.90;;;6.22;;
85131;SDS011;75493;51.772;19.464;2024-01-30T02:45:18;16.40;;;6.55;;
85131;SDS011;75493;51.772;19.464;2024-01-30T02:47:45;10.73;;;5.65;;
85131;SDS011;75493;51.772;19.464;2024-01-30T02:50:11;10.68;;;5.35;;
85131;SDS011;75493;51.772;19.464;2024-01-30T02:52:38;12.90;;;5.35;;
85131;SDS011;75493;51.772;19.464;2024-01-30T02:55:04;11.77;;;5.70;;
85131;SDS011;75493;51.772;19.464;2024-01-30T02:57:30;13.35;;;6.63;;
85131;SDS011;75493;51.772;19.464;2024-01-30T02:59:56;12.85;;;6.22;;
85131;SDS011;75493;51.772;19.464;2024-01-30T03:02:22;10.60;;;5.72;;
85131;SDS011;75493;51.772;19.464;2024-01-30T03:04:48;13.20;;;5.72;;
85131;SDS011;75493;51.772;19.464;2024-01-30T03:07:13;12.50;;;6.22;;
85131;SDS011;75493;51.772;19.464;2024-01-30T03:09:41;11.20;;;5.57;;
85131;SDS011;75493;51.772;19.464;2024-01-30T03:12:10;11.95;;;5.88;;
85131;SDS011;75493;51.772;19.464;2024-01-30T03:14:36;12.60;;;4.95;;
85131;SDS011;75493;51.772;19.464;2024-01-30T03:17:02;8.98;;;4.95;;
85131;SDS011;75493;51.772;19.464;2024-01-30T03:19:28;9.35;;;4.57;;
85131;SDS011;75493;51.772;19.464;2024-01-30T03:21:54;12.63;;;5.70;;
85131;SDS011;75493;51.772;19.464;2024-01-30T03:24:20;10.95;;;5.72;;
85131;SDS011;75493;51.772;19.464;2024-01-30T03:26:46;10.05;;;4.88;;
85131;SDS011;75493;51.772;19.464;2024-01-30T03:29:12;10.90;;;5.38;;
85131;SDS011;75493;51.772;19.464;2024-01-30T03:31:38;9.95;;;5.38;;
85131;SDS011;75493;51.772;19.464;2024-01-30T03:34:04;11.35;;;5.38;;
85131;SDS011;75493;51.772;19.464;2024-01-30T03:36:30;12.45;;;5.43;;
85131;SDS011;75493;51.772;19.464;2024-01-30T03:38:58;9.25;;;4.78;;
85131;SDS011;75493;51.772;19.464;2024-01-30T03:41:24;9.15;;;4.72;;
85131;SDS011;75493;51.772;19.464;2024-01-30T03:43:50;11.27;;;4.93;;
85131;SDS011;75493;51.772;19.464;2024-01-30T03:46:16;9.48;;;5.25;;
85131;SDS011;75493;51.772;19.464;2024-01-30T03:48:42;10.80;;;5.05;;
85131;SDS011;75493;51.772;19.464;2024-01-30T03:51:08;9.82;;;4.75;;
85131;SDS011;75493;51.772;19.464;2024-01-30T03:53:39;11.73;;;4.45;;
85131;SDS011;75493;51.772;19.464;2024-01-30T03:56:06;9.60;;;4.93;;
85131;SDS011;75493;51.772;19.464;2024-01-30T03:58:31;199.98;;;160.48;;
85131;SDS011;75493;51.772;19.464;2024-01-30T04:00:57;392.10;;;240.52;;
85131;SDS011;75493;51.772;19.464;2024-01-30T04:03:23;472.73;;;310.90;;
85131;SDS011;75493;51.772;19.464;2024-01-30T04:05:50;617.70;;;448.50;;
85131;SDS011;75493;51.772;19.464;2024-01-30T04:08:16;585.40;;;455.73;;
85131;SDS011;75493;51.772;19.464;2024-01-30T04:10:42;254.55;;;180.32;;
85131;SDS011;75493;51.772;19.464;2024-01-30T04:13:08;85.03;;;53.95;;
85131;SDS011;75493;51.772;19.464;2024-01-30T04:15:34;22.58;;;14.90;;
85131;SDS011;75493;51.772;19.464;2024-01-30T04:18:00;18.05;;;8.05;;
85131;SDS011;75493;51.772;19.464;2024-01-30T04:20:26;10.05;;;5.03;;
85131;SDS011;75493;51.772;19.464;2024-01-30T04:22:52;10.95;;;5.35;;
85131;SDS011;75493;51.772;19.464;2024-01-30T04:25:18;7.65;;;4.53;;
85131;SDS011;75493;51.772;19.464;2024-01-30T04:27:44;7.65;;;4.18;;
85131;SDS011;75493;51.772;19.464;2024-01-30T04:30:10;7.78;;;4.60;;
85131;SDS011;75493;51.772;19.464;2024-01-30T04:32:36;9.07;;;4.90;;
85131;SDS011;75493;51.772;19.464;2024-01-30T04:35:03;89.65;;;77.28;;
85131;SDS011;75493;51.772;19.464;2024-01-30T04:37:29;134.40;;;106.85;;
85131;SDS011;75493;51.772;19.464;2024-01-30T04:39:55;162.07;;;129.13;;
85131;SDS011;75493;51.772;19.464;2024-01-30T04:42:21;97.40;;;80.43;;
85131;SDS011;75493;51.772;19.464;2024-01-30T04:44:47;73.00;;;65.30;;
85131;SDS011;75493;51.772;19.464;2024-01-30T04:47:13;54.85;;;46.88;;
85131;SDS011;75493;51.772;19.464;2024-01-30T04:49:39;33.10;;;26.83;;
85131;SDS011;75493;51.772;19.464;2024-01-30T04:52:05;42.40;;;33.13;;
85131;SDS011;75493;51.772;19.464;2024-01-30T04:54:31;83.35;;;75.15;;
85131;SDS011;75493;51.772;19.464;2024-01-30T04:56:57;39.20;;;35.17;;
85131;SDS011;75493;51.772;19.464;2024-01-30T04:59:23;24.75;;;18.70;;
85131;SDS011;75493;51.772;19.464;2024-01-30T05:01:49;16.33;;;9.93;;
85131;SDS011;75493;51.772;19.464;2024-01-30T05:04:15;12.73;;;6.47;;
85131;SDS011;75493;51.772;19.464;2024-01-30T05:06:41;12.50;;;6.47;;
85131;SDS011;75493;51.772;19.464;2024-01-30T05:09:07;9.85;;;6.82;;
85131;SDS011;75493;51.772;19.464;2024-01-30T05:11:37;14.60;;;6.45;;
85131;SDS011;75493;51.772;19.464;2024-01-30T05:14:04;24.10;;;16.25;;
85131;SDS011;75493;51.772;19.464;2024-01-30T05:16:30;635.08;;;549.00;;
85131;SDS011;75493;51.772;19.464;2024-01-30T05:18:56;419.77;;;333.95;;
85131;SDS011;75493;51.772;19.464;2024-01-30T05:21:22;228.27;;;173.63;;
85131;SDS011;75493;51.772;19.464;2024-01-30T05:23:48;108.32;;;83.47;;
85131;SDS011;75493;51.772;19.464;2024-01-30T05:26:14;35.38;;;26.35;;
85131;SDS011;75493;51.772;19.464;2024-01-30T05:28:40;35.65;;;22.77;;
85131;SDS011;75493;51.772;19.464;2024-01-30T05:31:06;26.15;;;17.73;;
85131;SDS011;75493;51.772;19.464;2024-01-30T05:33:32;19.23;;;11.73;;
85131;SDS011;75493;51.772;19.464;2024-01-30T05:35:58;14.90;;;8.70;;
85131;SDS011;75493;51.772;19.464;2024-01-30T05:38:24;13.40;;;6.97;;
85131;SDS011;75493;51.772;19.464;2024-01-30T05:40:50;12.27;;;7.47;;
85131;SDS011;75493;51.772;19.464;2024-01-30T05:43:17;10.20;;;5.85;;
85131;SDS011;75493;51.772;19.464;2024-01-30T05:45:43;10.05;;;5.10;;
85131;SDS011;75493;51.772;19.464;2024-01-30T05:48:09;10.80;;;4.80;;
85131;SDS011;75493;51.772;19.464;2024-01-30T05:50:35;9.95;;;5.47;;
85131;SDS011;75493;51.772;19.464;2024-01-30T05:53:01;12.05;;;6.10;;
85131;SDS011;75493;51.772;19.464;2024-01-30T05:55:27;10.88;;;5.93;;
85131;SDS011;75493;51.772;19.464;2024-01-30T05:57:53;9.25;;;4.85;;
85131;SDS011;75493;51.772;19.464;2024-01-30T06:00:19;8.80;;;5.53;;
85131;SDS011;75493;51.772;19.464;2024-01-30T06:02:45;9.52;;;5.00;;
85131;SDS011;75493;51.772;19.464;2024-01-30T06:05:11;8.68;;;4.88;;
85131;SDS011;75493;51.772;19.464;2024-01-30T06:07:37;11.48;;;5.68;;
85131;SDS011;75493;51.772;19.464;2024-01-30T06:10:03;10.50;;;5.70;;
85131;SDS011;75493;51.772;19.464;2024-01-30T06:12:29;13.52;;;5.93;;
85131;SDS011;75493;51.772;19.464;2024-01-30T06:14:55;10.32;;;6.10;;
85131;SDS011;75493;51.772;19.464;2024-01-30T06:17:22;14.02;;;6.53;;
85131;SDS011;75493;51.772;19.464;2024-01-30T06:19:48;11.75;;;6.03;;
85131;SDS011;75493;51.772;19.464;2024-01-30T06:22:14;12.35;;;6.43;;
85131;SDS011;75493;51.772;19.464;2024-01-30T06:24:40;9.27;;;5.88;;
85131;SDS011;75493;51.772;19.464;2024-01-30T06:27:06;9.30;;;5.60;;
85131;SDS011;75493;51.772;19.464;2024-01-30T06:29:32;10.43;;;6.00;;
85131;SDS011;75493;51.772;19.464;2024-01-30T06:31:58;12.57;;;6.05;;
85131;SDS011;75493;51.772;19.464;2024-01-30T06:34:25;11.43;;;6.15;;
85131;SDS011;75493;51.772;19.464;2024-01-30T06:36:54;10.85;;;6.13;;
85131;SDS011;75493;51.772;19.464;2024-01-30T06:39:19;12.40;;;6.38;;
85131;SDS011;75493;51.772;19.464;2024-01-30T06:41:46;14.45;;;6.72;;
85131;SDS011;75493;51.772;19.464;2024-01-30T06:44:12;11.60;;;5.45;;
85131;SDS011;75493;51.772;19.464;2024-01-30T06:46:38;15.20;;;6.38;;
85131;SDS011;75493;51.772;19.464;2024-01-30T06:49:04;15.02;;;6.35;;
85131;SDS011;75493;51.772;19.464;2024-01-30T06:51:30;12.52;;;6.40;;
85131;SDS011;75493;51.772;19.464;2024-01-30T06:53:56;11.18;;;6.55;;
85131;SDS011;75493;51.772;19.464;2024-01-30T06:56:22;16.42;;;8.00;;
85131;SDS011;75493;51.772;19.464;2024-01-30T06:58:48;10.95;;;6.40;;
85131;SDS011;75493;51.772;19.464;2024-01-30T07:01:14;14.30;;;6.72;;
85131;SDS011;75493;51.772;19.464;2024-01-30T07:03:41;21.50;;;7.75;;
85131;SDS011;75493;51.772;19.464;2024-01-30T07:06:07;22.52;;;8.35;;
85131;SDS011;75493;51.772;19.464;2024-01-30T07:08:33;16.17;;;6.93;;
85131;SDS011;75493;51.772;19.464;2024-01-30T07:10:59;13.65;;;7.13;;
85131;SDS011;75493;51.772;19.464;2024-01-30T07:13:25;13.48;;;6.65;;
85131;SDS011;75493;51.772;19.464;2024-01-30T07:15:51;14.13;;;7.30;;
85131;SDS011;75493;51.772;19.464;2024-01-30T07:18:17;14.55;;;7.00;;
85131;SDS011;75493;51.772;19.464;2024-01-30T07:20:43;12.93;;;5.68;;
85131;SDS011;75493;51.772;19.464;2024-01-30T07:23:14;13.60;;;6.45;;
85131;SDS011;75493;51.772;19.464;2024-01-30T07:25:41;14.95;;;7.30;;
85131;SDS011;75493;51.772;19.464;2024-01-30T07:28:08;16.30;;;7.13;;
85131;SDS011;75493;51.772;19.464;2024-01-30T07:30:37;16.50;;;8.65;;
85131;SDS011;75493;51.772;19.464;2024-01-30T07:33:03;15.00;;;8.05;;
85131;SDS011;75493;51.772;19.464;2024-01-30T07:35:30;15.80;;;7.95;;
85131;SDS011;75493;51.772;19.464;2024-01-30T07:37:55;16.90;;;7.68;;
85131;SDS011;75493;51.772;19.464;2024-01-30T07:40:22;14.77;;;7.35;;
85131;SDS011;75493;51.772;19.464;2024-01-30T07:42:49;14.10;;;7.57;;
85131;SDS011;75493;51.772;19.464;2024-01-30T07:45:15;16.75;;;8.18;;
85131;SDS011;75493;51.772;19.464;2024-01-30T07:47:41;13.25;;;7.57;;
85131;SDS011;75493;51.772;19.464;2024-01-30T07:50:07;16.90;;;8.18;;
85131;SDS011;75493;51.772;19.464;2024-01-30T07:52:33;16.05;;;6.90;;
85131;SDS011;75493;51.772;19.464;2024-01-30T07:54:59;15.88;;;6.68;;
85131;SDS011;75493;51.772;19.464;2024-01-30T07:57:25;16.98;;;7.82;;
85131;SDS011;75493;51.772;19.464;2024-01-30T07:59:51;13.02;;;7.10;;
85131;SDS011;75493;51.772;19.464;2024-01-30T08:02:17;16.67;;;7.40;;
85131;SDS011;75493;51.772;19.464;2024-01-30T08:04:44;15.30;;;7.70;;
85131;SDS011;75493;51.772;19.464;2024-01-30T08:07:13;17.55;;;9.00;;
85131;SDS011;75493;51.772;19.464;2024-01-30T08:09:39;18.10;;;9.27;;
85131;SDS011;75493;51.772;19.464;2024-01-30T08:12:05;16.95;;;8.80;;
85131;SDS011;75493;51.772;19.464;2024-01-30T08:14:31;18.15;;;9.07;;
85131;SDS011;75493;51.772;19.464;2024-01-30T08:16:57;13.43;;;8.07;;
85131;SDS011;75493;51.772;19.464;2024-01-30T08:19:23;13.43;;;7.05;;
85131;SDS011;75493;51.772;19.464;2024-01-30T08:21:49;16.25;;;7.72;;
85131;SDS011;75493;51.772;19.464;2024-01-30T08:24:15;11.77;;;6.70;;
85131;SDS011;75493;51.772;19.464;2024-01-30T08:26:41;16.70;;;8.10;;
85131;SDS011;75493;51.772;19.464;2024-01-30T08:29:07;14.70;;;7.28;;
85131;SDS011;75493;51.772;19.464;2024-01-30T08:31:33;15.65;;;7.00;;
85131;SDS011;75493;51.772;19.464;2024-01-30T08:33:59;13.80;;;6.32;;
85131;SDS011;75493;51.772;19.464;2024-01-30T08:36:25;12.45;;;5.90;;
85131;SDS011;75493;51.772;19.464;2024-01-30T08:38:51;11.55;;;6.18;;
85131;SDS011;75493;51.772;19.464;2024-01-30T08:41:17;16.48;;;6.65;;
85131;SDS011;75493;51.772;19.464;2024-01-30T08:43:43;12.63;;;7.18;;
85131;SDS011;75493;51.772;19.464;2024-01-30T08:46:09;13.98;;;6.60;;
85131;SDS011;75493;51.772;19.464;2024-01-30T08:48:36;15.50;;;6.65;;
85131;SDS011;75493;51.772;19.464;2024-01-30T08:51:02;11.15;;;6.43;;
85131;SDS011;75493;51.772;19.464;2024-01-30T08:53:28;17.67;;;8.55;;
85131;SDS011;75493;51.772;19.464;2024-01-30T08:55:54;14.88;;;7.95;;
85131;SDS011;75493;51.772;19.464;2024-01-30T08:58:20;18.33;;;8.23;;
85131;SDS011;75493;51.772;19.464;2024-01-30T09:00:46;16.55;;;7.43;;
85131;SDS011;75493;51.772;19.464;2024-01-30T09:03:12;15.20;;;8.18;;
85131;SDS011;75493;51.772;19.464;2024-01-30T09:05:38;15.75;;;7.22;;
85131;SDS011;75493;51.772;19.464;2024-01-30T09:08:04;14.38;;;7.57;;
85131;SDS011;75493;51.772;19.464;2024-01-30T09:10:30;14.40;;;7.32;;
85131;SDS011;75493;51.772;19.464;2024-01-30T09:12:56;17.30;;;8.30;;
85131;SDS011;75493;51.772;19.464;2024-01-30T09:15:22;14.32;;;7.65;;
85131;SDS011;75493;51.772;19.464;2024-01-30T09:17:48;16.33;;;7.88;;
85131;SDS011;75493;51.772;19.464;2024-01-30T09:20:14;11.27;;;7.30;;
85131;SDS011;75493;51.772;19.464;2024-01-30T09:22:39;13.23;;;6.53;;
85131;SDS011;75493;51.772;19.464;2024-01-30T09:25:05;13.35;;;6.45;;
85131;SDS011;75493;51.772;19.464;2024-01-30T09:27:31;20.05;;;10.50;;
85131;SDS011;75493;51.772;19.464;2024-01-30T09:29:57;27.17;;;13.00;;
85131;SDS011;75493;51.772;19.464;2024-01-30T09:32:23;17.52;;;9.73;;
85131;SDS011;75493;51.772;19.464;2024-01-30T09:34:49;13.55;;;7.43;;
85131;SDS011;75493;51.772;19.464;2024-01-30T09:37:15;14.63;;;6.85;;
85131;SDS011;75493;51.772;19.464;2024-01-30T09:39:43;14.68;;;7.57;;
85131;SDS011;75493;51.772;19.464;2024-01-30T09:42:51;11.50;;;6.80;;
85131;SDS011;75493;51.772;19.464;2024-01-30T09:44:59;11.38;;;6.07;;
85131;SDS011;75493;51.772;19.464;2024-01-30T09:47:24;13.93;;;6.47;;
85131;SDS011;75493;51.772;19.464;2024-01-30T09:49:51;12.90;;;5.90;;
85131;SDS011;75493;51.772;19.464;2024-01-30T09:52:17;10.93;;;6.47;;
85131;SDS011;75493;51.772;19.464;2024-01-30T09:54:44;12.73;;;6.18;;
85131;SDS011;75493;51.772;19.464;2024-01-30T09:57:11;13.48;;;6.25;;
85131;SDS011;75493;51.772;19.464;2024-01-30T09:59:37;12.50;;;6.40;;
85131;SDS011;75493;51.772;19.464;2024-01-30T10:02:03;11.52;;;5.75;;
85131;SDS011;75493;51.772;19.464;2024-01-30T10:04:30;11.90;;;6.03;;
85131;SDS011;75493;51.772;19.464;2024-01-30T10:06:56;13.82;;;6.22;;
85131;SDS011;75493;51.772;19.464;2024-01-30T10:09:23;12.35;;;5.53;;
85131;SDS011;75493;51.772;19.464;2024-01-30T10:11:50;10.20;;;5.82;;
85131;SDS011;75493;51.772;19.464;2024-01-30T10:14:16;11.55;;;5.65;;
85131;SDS011;75493;51.772;19.464;2024-01-30T10:16:42;8.52;;;4.82;;
85131;SDS011;75493;51.772;19.464;2024-01-30T10:19:10;9.77;;;5.75;;
85131;SDS011;75493;51.772;19.464;2024-01-30T10:21:36;13.38;;;6.68;;
85131;SDS011;75493;51.772;19.464;2024-01-30T10:24:02;11.15;;;5.05;;
85131;SDS011;75493;51.772;19.464;2024-01-30T10:26:28;14.00;;;6.35;;
85131;SDS011;75493;51.772;19.464;2024-01-30T10:28:58;12.55;;;6.80;;
85131;SDS011;75493;51.772;19.464;2024-01-30T10:31:24;17.40;;;8.35;;
85131;SDS011;75493;51.772;19.464;2024-01-30T10:33:50;10.77;;;6.97;;
85131;SDS011;75493;51.772;19.464;2024-01-30T10:36:16;14.63;;;6.95;;
85131;SDS011;75493;51.772;19.464;2024-01-30T10:38:43;14.48;;;6.85;;
85131;SDS011;75493;51.772;19.464;2024-01-30T10:41:11;12.68;;;6.25;;
85131;SDS011;75493;51.772;19.464;2024-01-30T10:43:41;11.10;;;6.63;;
85131;SDS011;75493;51.772;19.464;2024-01-30T10:46:11;10.55;;;5.80;;
85131;SDS011;75493;51.772;19.464;2024-01-30T10:48:39;13.07;;;8.23;;
85131;SDS011;75493;51.772;19.464;2024-01-30T10:51:08;19.38;;;10.77;;
85131;SDS011;75493;51.772;19.464;2024-01-30T10:53:35;20.58;;;10.02;;
85131;SDS011;75493;51.772;19.464;2024-01-30T10:56:02;17.58;;;9.20;;
85131;SDS011;75493;51.772;19.464;2024-01-30T10:58:29;14.85;;;8.55;;
85131;SDS011;75493;51.772;19.464;2024-01-30T11:00:55;11.90;;;6.82;;
85131;SDS011;75493;51.772;19.464;2024-01-30T11:03:21;12.95;;;6.50;;
85131;SDS011;75493;51.772;19.464;2024-01-30T11:05:52;13.57;;;6.45;;
85131;SDS011;75493;51.772;19.464;2024-01-30T11:08:24;14.75;;;6.00;;
85131;SDS011;75493;51.772;19.464;2024-01-30T11:10:54;13.98;;;6.10;;
85131;SDS011;75493;51.772;19.464;2024-01-30T11:13:20;13.82;;;6.60;;
85131;SDS011;75493;51.772;19.464;2024-01-30T11:15:47;9.82;;;5.72;;
85131;SDS011;75493;51.772;19.464;2024-01-30T11:18:22;10.82;;;6.10;;
85131;SDS011;75493;51.772;19.464;2024-01-30T11:20:49;13.27;;;6.35;;
85131;SDS011;75493;51.772;19.464;2024-01-30T11:23:15;12.07;;;5.85;;
85131;SDS011;75493;51.772;19.464;2024-01-30T11:25:40;13.88;;;6.20;;
85131;SDS011;75493;51.772;19.464;2024-01-30T11:28:14;9.13;;;5.22;;
85131;SDS011;75493;51.772;19.464;2024-01-30T11:30:43;12.30;;;6.10;;
85131;SDS011;75493;51.772;19.464;2024-01-30T11:33:10;12.13;;;5.97;;
85131;SDS011;75493;51.772;19.464;2024-01-30T11:35:37;15.18;;;6.72;;
85131;SDS011;75493;51.772;19.464;2024-01-30T11:38:07;12.32;;;6.93;;
85131;SDS011;75493;51.772;19.464;2024-01-30T11:40:33;14.30;;;6.55;;
85131;SDS011;75493;51.772;19.464;2024-01-30T11:43:00;14.00;;;6.53;;
85131;SDS011;75493;51.772;19.464;2024-01-30T11:45:27;11.32;;;5.55;;
85131;SDS011;75493;51.772;19.464;2024-01-30T11:47:53;10.68;;;5.60;;
85131;SDS011;75493;51.772;19.464;2024-01-30T11:50:19;11.68;;;5.40;;
85131;SDS011;75493;51.772;19.464;2024-01-30T11:52:45;12.13;;;6.18;;
85131;SDS011;75493;51.772;19.464;2024-01-30T11:55:12;12.85;;;6.20;;
85131;SDS011;75493;51.772;19.464;2024-01-30T11:57:38;12.40;;;6.28;;
85131;SDS011;75493;51.772;19.464;2024-01-30T12:00:04;12.50;;;6.78;;
85131;SDS011;75493;51.772;19.464;2024-01-30T12:02:35;11.50;;;5.15;;
85131;SDS011;75493;51.772;19.464;2024-01-30T12:05:07;11.32;;;6.07;;
85131;SDS011;75493;51.772;19.464;2024-01-30T12:07:34;12.95;;;6.10;;
85131;SDS011;75493;51.772;19.464;2024-01-30T12:10:00;10.52;;;5.80;;
85131;SDS011;75493;51.772;19.464;2024-01-30T12:12:26;11.35;;;5.78;;
85131;SDS011;75493;51.772;19.464;2024-01-30T12:14:52;11.35;;;6.47;;
85131;SDS011;75493;51.772;19.464;2024-01-30T12:20:06;11.80;;;5.65;;
85131;SDS011;75493;51.772;19.464;2024-01-30T12:25:04;10.80;;;5.35;;
85131;SDS011;75493;51.772;19.464;2024-01-30T12:27:30;14.52;;;6.35;;
85131;SDS011;75493;51.772;19.464;2024-01-30T12:29:57;12.35;;;6.43;;
85131;SDS011;75493;51.772;19.464;2024-01-30T12:32:23;14.65;;;6.80;;
85131;SDS011;75493;51.772;19.464;2024-01-30T12:34:49;10.00;;;5.38;;
85131;SDS011;75493;51.772;19.464;2024-01-30T12:37:15;9.50;;;5.63;;
85131;SDS011;75493;51.772;19.464;2024-01-30T12:39:47;13.35;;;6.53;;
85131;SDS011;75493;51.772;19.464;2024-01-30T12:42:14;12.57;;;6.75;;
85131;SDS011;75493;51.772;19.464;2024-01-30T12:44:40;10.63;;;6.20;;
85131;SDS011;75493;51.772;19.464;2024-01-30T12:47:08;13.30;;;7.25;;
85131;SDS011;75493;51.772;19.464;2024-01-30T12:49:35;13.13;;;6.85;;
85131;SDS011;75493;51.772;19.464;2024-01-30T12:52:01;13.43;;;6.75;;
85131;SDS011;75493;51.772;19.464;2024-01-30T12:54:27;17.58;;;7.68;;
85131;SDS011;75493;51.772;19.464;2024-01-30T12:56:53;16.75;;;7.20;;
85131;SDS011;75493;51.772;19.464;2024-01-30T12:59:21;13.10;;;6.55;;
85131;SDS011;75493;51.772;19.464;2024-01-30T13:01:47;15.30;;;7.20;;
85131;SDS011;75493;51.772;19.464;2024-01-30T13:04:13;11.43;;;6.47;;
85131;SDS011;75493;51.772;19.464;2024-01-30T13:06:40;9.15;;;5.35;;
85131;SDS011;75493;51.772;19.464;2024-01-30T13:09:06;10.13;;;5.40;;
85131;SDS011;75493;51.772;19.464;2024-01-30T13:11:32;11.30;;;5.72;;
85131;SDS011;75493;51.772;19.464;2024-01-30T13:13:59;10.80;;;5.88;;
85131;SDS011;75493;51.772;19.464;2024-01-30T13:16:25;11.32;;;6.30;;
85131;SDS011;75493;51.772;19.464;2024-01-30T13:18:51;14.70;;;5.88;;
85131;SDS011;75493;51.772;19.464;2024-01-30T13:21:17;13.02;;;6.47;;
85131;SDS011;75493;51.772;19.464;2024-01-30T13:23:43;11.90;;;6.57;;
85131;SDS011;75493;51.772;19.464;2024-01-30T13:26:09;14.00;;;6.57;;
85131;SDS011;75493;51.772;19.464;2024-01-30T13:28:35;13.57;;;6.80;;
85131;SDS011;75493;51.772;19.464;2024-01-30T13:31:00;12.85;;;6.55;;
85131;SDS011;75493;51.772;19.464;2024-01-30T13:33:26;14.15;;;6.43;;
85131;SDS011;75493;51.772;19.464;2024-01-30T13:35:52;10.50;;;5.97;;
85131;SDS011;75493;51.772;19.464;2024-01-30T13:38:18;10.40;;;5.95;;
85131;SDS011;75493;51.772;19.464;2024-01-30T13:40:44;9.60;;;5.25;;
85131;SDS011;75493;51.772;19.464;2024-01-30T13:43:10;14.77;;;8.82;;
85131;SDS011;75493;51.772;19.464;2024-01-30T13:45:37;16.15;;;8.10;;
85131;SDS011;75493;51.772;19.464;2024-01-30T13:48:03;16.15;;;7.85;;
85131;SDS011;75493;51.772;19.464;2024-01-30T13:50:29;19.65;;;9.15;;
85131;SDS011;75493;51.772;19.464;2024-01-30T13:52:55;15.13;;;8.07;;
85131;SDS011;75493;51.772;19.464;2024-01-30T13:55:21;17.15;;;8.38;;
85131;SDS011;75493;51.772;19.464;2024-01-30T13:57:47;17.60;;;8.55;;
85131;SDS011;75493;51.772;19.464;2024-01-30T14:00:13;17.00;;;7.45;;
85131;SDS011;75493;51.772;19.464;2024-01-30T14:02:41;12.38;;;6.75;;
85131;SDS011;75493;51.772;19.464;2024-01-30T14:05:07;14.77;;;6.85;;
85131;SDS011;75493;51.772;19.464;2024-01-30T14:07:33;13.68;;;7.22;;
85131;SDS011;75493;51.772;19.464;2024-01-30T14:09:59;13.63;;;6.85;;
85131;SDS011;75493;51.772;19.464;2024-01-30T14:12:25;16.88;;;8.25;;
85131;SDS011;75493;51.772;19.464;2024-01-30T14:14:51;16.90;;;7.75;;
85131;SDS011;75493;51.772;19.464;2024-01-30T14:17:17;13.13;;;6.68;;
85131;SDS011;75493;51.772;19.464;2024-01-30T14:19:43;12.00;;;6.78;;
85131;SDS011;75493;51.772;19.464;2024-01-30T14:22:09;12.15;;;6.47;;
85131;SDS011;75493;51.772;19.464;2024-01-30T14:24:35;19.95;;;8.10;;